createdAt,value
2022-10-08T00:02:43.130Z,100.00
2022-10-08T00:05:56.296Z,100.00
2022-10-08T00:09:00.771Z,100.00
2022-10-08T00:12:03.787Z,100.00
2022-10-08T00:15:07.653Z,100.00
2022-10-08T00:18:10.465Z,100.00
2022-10-08T00:21:17.455Z,100.00
2022-10-08T00:24:21.312Z,100.00
2022-10-08T00:27:24.427Z,100.00
2022-10-08T00:30:27.291Z,100.00
2022-10-08T00:33:30.093Z,100.00
2022-10-08T00:36:36.420Z,100.00
2022-10-08T00:39:39.265Z,100.00
2022-10-08T00:42:42.131Z,100.00
2022-10-08T00:45:46.341Z,100.00
2022-10-08T00:48:49.292Z,100.00
2022-10-08T00:51:57.154Z,100.00
2022-10-08T00:55:00.241Z,100.00
2022-10-08T00:58:08.373Z,100.00
2022-10-08T01:01:11.380Z,100.00
2022-10-08T01:04:15.722Z,100.00
2022-10-08T01:07:27.326Z,100.00
2022-10-08T01:10:40.021Z,100.00
2022-10-08T01:13:50.279Z,100.00
2022-10-08T01:17:02.654Z,100.00
2022-10-08T01:20:43.623Z,100.00
2022-10-08T01:24:09.015Z,100.00
2022-10-08T01:27:20.853Z,100.00
2022-10-08T01:30:24.874Z,100.00
2022-10-08T01:33:33.111Z,100.00
2022-10-08T01:36:44.680Z,100.00
2022-10-08T01:39:50.364Z,100.00
2022-10-08T01:42:57.117Z,100.00
2022-10-08T01:46:06.757Z,100.00
2022-10-08T01:49:15.007Z,100.00
2022-10-08T01:52:24.402Z,100.00
2022-10-08T01:55:31.938Z,100.00
2022-10-08T01:58:42.281Z,100.00
2022-10-08T02:01:53.305Z,100.00
2022-10-08T02:04:57.028Z,100.00
2022-10-08T02:07:59.926Z,100.00
2022-10-08T02:11:02.960Z,100.00
2022-10-08T02:14:08.179Z,100.00
2022-10-08T02:17:22.523Z,100.00
2022-10-08T02:20:32.906Z,100.00
2022-10-08T02:23:40.055Z,100.00
2022-10-08T02:26:48.219Z,100.00
2022-10-08T02:30:02.515Z,100.00
2022-10-08T02:33:10.550Z,100.00
2022-10-08T02:36:17.611Z,100.00
2022-10-08T02:39:21.986Z,100.00
2022-10-08T02:42:27.907Z,100.00
2022-10-08T02:45:37.126Z,100.00
2022-10-08T02:48:42.887Z,100.00
2022-10-08T02:51:49.428Z,100.00
2022-10-08T02:54:54.246Z,100.00
2022-10-08T02:58:01.786Z,100.00
2022-10-08T03:01:14.970Z,100.00
2022-10-08T03:04:23.651Z,100.00
2022-10-08T03:07:30.905Z,100.00
2022-10-08T03:10:36.643Z,100.00
2022-10-08T03:13:43.380Z,100.00
2022-10-08T03:16:49.049Z,100.00
2022-10-08T03:19:52.550Z,100.00
2022-10-08T03:22:56.677Z,100.00
2022-10-08T03:25:59.564Z,100.00
2022-10-08T03:29:02.542Z,100.00
2022-10-08T03:32:07.013Z,100.00
2022-10-08T03:35:09.995Z,100.00
2022-10-08T03:38:15.401Z,100.00
2022-10-08T03:41:19.107Z,100.00
2022-10-08T03:44:22.013Z,100.00
2022-10-08T03:47:26.278Z,100.00
2022-10-08T03:50:29.144Z,100.00
2022-10-08T03:53:34.379Z,100.00
2022-10-08T03:56:37.222Z,100.00
2022-10-08T03:59:40.102Z,100.00
2022-10-08T04:02:44.424Z,100.00
2022-10-08T04:05:50.254Z,100.00
2022-10-08T04:08:53.627Z,100.00
2022-10-08T04:11:56.471Z,100.00
2022-10-08T04:14:59.463Z,100.00
2022-10-08T04:18:03.996Z,100.00
2022-10-08T04:21:09.209Z,100.00
2022-10-08T04:24:12.069Z,100.00
2022-10-08T04:27:14.935Z,100.00
2022-10-08T04:30:17.902Z,100.00
2022-10-08T04:33:22.340Z,100.00
2022-10-08T04:36:25.733Z,100.00
2022-10-08T04:39:28.543Z,100.00
2022-10-08T04:42:31.388Z,100.00
2022-10-08T04:45:34.726Z,100.00
2022-10-08T04:48:41.024Z,100.00
2022-10-08T04:51:43.930Z,100.00
2022-10-08T04:54:46.998Z,100.00
2022-10-08T04:57:49.834Z,100.00
2022-10-08T05:00:53.012Z,100.00
2022-10-08T05:03:58.936Z,100.00
2022-10-08T05:07:01.796Z,100.00
2022-10-08T05:10:05.270Z,100.00
2022-10-08T05:13:08.110Z,100.00
2022-10-08T05:16:12.567Z,100.00
2022-10-08T05:19:16.984Z,100.00
2022-10-08T05:22:19.838Z,100.00
2022-10-08T05:25:22.640Z,100.00
2022-10-08T05:28:25.691Z,100.00
2022-10-08T05:31:30.414Z,100.00
2022-10-08T05:34:34.820Z,100.00
2022-10-08T05:37:37.650Z,100.00
2022-10-08T05:40:40.482Z,100.00
2022-10-08T05:43:43.642Z,100.00
2022-10-08T05:46:46.491Z,100.00
2022-10-08T05:49:50.734Z,100.00
2022-10-08T05:52:53.755Z,100.00
2022-10-08T05:56:01.633Z,100.00
2022-10-08T05:59:04.706Z,100.00
2022-10-08T06:02:07.950Z,100.00
2022-10-08T06:05:12.248Z,100.00
2022-10-08T06:08:15.104Z,100.00
2022-10-08T06:11:17.978Z,100.00
2022-10-08T06:14:21.273Z,100.00
2022-10-08T06:17:24.160Z,100.00
2022-10-08T06:20:31.816Z,100.00
2022-10-08T06:23:35.812Z,100.00
2022-10-08T06:26:40.571Z,100.00
2022-10-08T06:29:43.405Z,100.00
2022-10-08T06:32:46.589Z,100.00
2022-10-08T06:35:50.910Z,100.00
2022-10-08T06:38:55.447Z,100.00
2022-10-08T06:41:58.299Z,100.00
2022-10-08T06:45:06.892Z,100.00
2022-10-08T06:48:10.572Z,100.00
2022-10-08T06:51:18.015Z,100.00
2022-10-08T06:54:20.837Z,100.00
2022-10-08T06:57:23.690Z,100.00
2022-10-08T07:00:26.801Z,100.00
2022-10-08T07:03:29.740Z,100.00
2022-10-08T07:06:34.451Z,100.00
2022-10-08T07:09:37.389Z,100.00
2022-10-08T07:12:40.271Z,100.00
2022-10-08T07:15:43.307Z,100.00
2022-10-08T07:18:47.465Z,100.00
2022-10-08T07:21:51.667Z,100.00
2022-10-08T07:24:54.505Z,100.00
2022-10-08T07:27:57.460Z,100.00
2022-10-08T07:31:04.593Z,100.00
2022-10-08T07:34:11.048Z,100.00
2022-10-08T07:37:15.284Z,100.00
2022-10-08T07:40:18.127Z,100.00
2022-10-08T07:43:20.981Z,100.00
2022-10-08T07:46:23.840Z,100.00
2022-10-08T07:49:26.986Z,100.00
2022-10-08T07:52:32.154Z,100.00
2022-10-08T07:55:34.968Z,100.00
2022-10-08T07:58:38.675Z,100.00
2022-10-08T08:01:41.918Z,100.00
2022-10-08T08:04:44.751Z,100.00
2022-10-08T08:07:53.164Z,100.00
2022-10-08T08:10:58.167Z,100.00
2022-10-08T08:14:00.996Z,100.00
2022-10-08T08:17:04.184Z,100.00
2022-10-08T08:20:07.973Z,100.00
2022-10-08T08:23:12.261Z,100.00
2022-10-08T08:26:17.612Z,100.00
2022-10-08T08:29:20.486Z,100.00
2022-10-08T08:32:28.232Z,100.00
2022-10-08T08:35:31.472Z,100.00
2022-10-08T08:38:37.106Z,100.00
2022-10-08T08:42:16.235Z,100.00
2022-10-08T08:45:46.874Z,100.00
2022-10-08T08:48:55.048Z,100.00
2022-10-08T08:52:00.406Z,100.00
2022-10-08T08:55:14.788Z,100.00
2022-10-08T08:58:27.213Z,100.00
2022-10-08T09:01:35.594Z,100.00
2022-10-08T09:04:45.359Z,100.00
2022-10-08T09:07:54.351Z,100.00
2022-10-08T09:11:01.596Z,100.00
2022-10-08T09:14:28.558Z,100.00
2022-10-08T09:17:33.469Z,100.00
2022-10-08T09:20:40.086Z,100.00
2022-10-08T09:23:43.461Z,100.00
2022-10-08T09:26:47.693Z,100.00
2022-10-08T09:29:50.517Z,100.00
2022-10-08T09:32:54.434Z,100.00
2022-10-08T09:35:57.405Z,100.00
2022-10-08T09:39:01.552Z,100.00
2022-10-08T09:42:17.704Z,100.00
2022-10-08T09:45:34.379Z,100.00
2022-10-08T09:48:37.171Z,100.00
2022-10-08T09:51:43.209Z,100.00
2022-10-08T09:54:48.987Z,100.00
2022-10-08T09:58:00.303Z,100.00
2022-10-08T10:01:07.542Z,100.00
2022-10-08T10:04:21.389Z,100.00
2022-10-08T10:07:25.343Z,100.00
2022-10-08T10:10:33.446Z,100.00
2022-10-08T10:13:41.198Z,100.00
2022-10-08T10:16:46.935Z,100.00
2022-10-08T10:19:56.416Z,100.00
2022-10-08T10:23:04.368Z,100.00
2022-10-08T10:26:14.219Z,100.00
2022-10-08T10:29:22.489Z,100.00
2022-10-08T10:32:32.314Z,100.00
2022-10-08T10:35:42.529Z,100.00
2022-10-08T10:38:52.911Z,100.00
2022-10-08T10:42:04.139Z,100.00
2022-10-08T10:45:20.113Z,100.00
2022-10-08T10:48:22.981Z,100.00
2022-10-08T10:51:36.566Z,100.00
2022-10-08T10:54:52.204Z,100.00
2022-10-08T10:58:17.496Z,100.00
2022-10-08T11:01:29.230Z,100.00
2022-10-08T11:04:43.447Z,100.00
2022-10-08T11:08:03.666Z,100.00
2022-10-08T11:11:20.597Z,100.00
2022-10-08T11:14:39.222Z,100.00
2022-10-08T11:18:06.275Z,100.00
2022-10-08T11:21:19.348Z,100.00
2022-10-08T11:24:38.142Z,100.00
2022-10-08T11:27:51.608Z,100.00
2022-10-08T11:31:05.668Z,100.00
2022-10-08T11:34:21.081Z,100.00
2022-10-08T11:37:29.826Z,100.00
2022-10-08T11:40:37.691Z,100.00
2022-10-08T11:43:44.890Z,100.00
2022-10-08T11:46:48.088Z,96.91
2022-10-08T11:49:56.735Z,97.85
2022-10-08T11:53:17.035Z,97.65
2022-10-08T11:56:20.619Z,99.33
2022-10-08T11:59:33.361Z,97.26
2022-10-08T12:02:39.921Z,97.52
2022-10-08T12:05:50.337Z,97.85
2022-10-08T12:08:57.764Z,98.30
2022-10-08T12:12:14.326Z,97.31
2022-10-08T12:15:50.478Z,99.53
2022-10-08T12:18:54.200Z,97.97
2022-10-08T12:21:59.506Z,94.64
2022-10-08T12:25:04.808Z,94.68
2022-10-08T12:28:50.619Z,96.46
2022-10-08T12:32:02.940Z,95.92
2022-10-08T12:35:21.022Z,94.71
2022-10-08T12:38:35.201Z,97.96
2022-10-08T12:41:49.785Z,97.72
2022-10-08T12:45:05.551Z,100.00
2022-10-08T12:48:16.947Z,100.00
2022-10-08T12:51:31.225Z,100.00
2022-10-08T12:54:35.910Z,100.00
2022-10-08T12:57:41.562Z,100.00
2022-10-08T13:00:45.755Z,99.96
2022-10-08T13:03:49.012Z,100.00
2022-10-08T13:06:53.386Z,100.00
2022-10-08T13:10:00.017Z,100.00
2022-10-08T13:13:04.666Z,100.00
2022-10-08T13:16:11.404Z,100.00
2022-10-08T13:19:19.122Z,100.00
2022-10-08T13:22:26.211Z,100.00
2022-10-08T13:25:36.502Z,100.00
2022-10-08T13:28:59.220Z,100.00
2022-10-08T13:32:06.200Z,100.00
2022-10-08T13:35:23.074Z,100.00
2022-10-08T13:38:28.724Z,100.00
2022-10-08T13:41:32.976Z,100.00
2022-10-08T13:44:37.873Z,100.00
2022-10-08T13:47:40.768Z,100.00
2022-10-08T13:50:45.264Z,100.00
2022-10-08T13:53:48.097Z,100.00
2022-10-08T13:56:52.863Z,100.00
2022-10-08T13:59:56.157Z,100.00
2022-10-08T14:02:59.210Z,100.00
2022-10-08T14:06:02.089Z,100.00
2022-10-08T14:09:06.446Z,100.00
2022-10-08T14:12:11.777Z,100.00
2022-10-08T14:15:16.692Z,100.00
2022-10-08T14:18:19.515Z,100.00
2022-10-08T14:21:22.487Z,100.00
2022-10-08T14:24:25.322Z,100.00
2022-10-08T14:27:29.866Z,100.00
2022-10-08T14:30:32.698Z,100.00
2022-10-08T14:33:35.672Z,100.00
2022-10-08T14:36:41.902Z,100.00
2022-10-08T14:39:44.797Z,100.00
2022-10-08T14:42:50.058Z,100.00
2022-10-08T14:45:53.674Z,100.00
2022-10-08T14:48:56.583Z,100.00
2022-10-08T14:51:59.485Z,100.00
2022-10-08T14:55:02.422Z,100.00
2022-10-08T14:58:06.774Z,100.00
2022-10-08T15:01:09.893Z,100.00
2022-10-08T15:04:15.791Z,100.00
2022-10-08T15:07:18.708Z,100.00
2022-10-08T15:10:21.752Z,100.00
2022-10-08T15:13:25.982Z,100.00
2022-10-08T15:16:28.959Z,100.00
2022-10-08T15:19:31.890Z,100.00
2022-10-08T15:22:34.775Z,100.00
2022-10-08T15:25:37.845Z,100.00
2022-10-08T15:28:43.141Z,100.00
2022-10-08T15:31:46.269Z,100.00
2022-10-08T15:34:49.137Z,100.00
2022-10-08T15:37:52.097Z,100.00
2022-10-08T15:41:03.132Z,100.00
2022-10-08T15:44:11.091Z,100.00
2022-10-08T15:47:16.438Z,100.00
2022-10-08T15:50:19.383Z,100.00
2022-10-08T15:53:22.381Z,100.00
2022-10-08T15:56:25.589Z,100.00
2022-10-08T15:59:30.174Z,100.00
2022-10-08T16:02:33.192Z,100.00
2022-10-08T16:05:36.209Z,100.00
2022-10-08T16:08:41.234Z,100.00
2022-10-08T16:11:44.700Z,100.00
2022-10-08T16:14:49.354Z,100.00
2022-10-08T16:17:52.410Z,100.00
2022-10-08T16:20:55.302Z,100.00
2022-10-08T16:23:58.746Z,100.00
2022-10-08T16:27:01.625Z,100.00
2022-10-08T16:30:06.974Z,100.00
2022-10-08T16:33:09.821Z,100.00
2022-10-08T16:36:13.252Z,100.00
2022-10-08T16:39:19.233Z,100.00
2022-10-08T16:42:22.220Z,100.00
2022-10-08T16:45:26.554Z,100.00
2022-10-08T16:48:29.509Z,100.00
2022-10-08T16:51:34.523Z,100.00
2022-10-08T16:54:37.725Z,100.00
2022-10-08T16:57:40.578Z,100.00
2022-10-08T17:00:45.112Z,100.00
2022-10-08T17:03:48.695Z,100.00
2022-10-08T17:06:51.860Z,100.00
2022-10-08T17:09:54.784Z,100.00
2022-10-08T17:12:57.638Z,100.00
2022-10-08T17:16:03.574Z,100.00
2022-10-08T17:19:07.281Z,100.00
2022-10-08T17:22:10.535Z,100.00
2022-10-08T17:25:13.432Z,100.00
2022-10-08T17:28:16.636Z,100.00
2022-10-08T17:31:23.375Z,100.00
2022-10-08T17:34:26.480Z,100.00
2022-10-08T17:37:29.545Z,100.00
2022-10-08T17:40:32.571Z,100.00
2022-10-08T17:43:35.609Z,100.00
2022-10-08T17:46:42.891Z,100.00
2022-10-08T17:49:46.045Z,100.00
2022-10-08T17:52:49.409Z,100.00
2022-10-08T17:55:58.927Z,100.00
2022-10-08T17:59:02.244Z,100.00
2022-10-08T18:02:06.712Z,100.00
2022-10-08T18:05:10.144Z,100.00
2022-10-08T18:08:13.225Z,100.00
2022-10-08T18:11:17.975Z,100.00
2022-10-08T18:14:21.758Z,100.00
2022-10-08T18:17:26.094Z,100.00
2022-10-08T18:20:29.010Z,100.00
2022-10-08T18:23:33.550Z,100.00
2022-10-08T18:26:37.136Z,100.00
2022-10-08T18:29:40.502Z,100.00
2022-10-08T18:32:45.131Z,100.00
2022-10-08T18:35:48.353Z,100.00
2022-10-08T18:38:55.906Z,100.00
2022-10-08T18:41:58.937Z,100.00
2022-10-08T18:45:01.871Z,100.00
2022-10-08T18:48:06.425Z,100.00
2022-10-08T18:51:12.122Z,100.00
2022-10-08T18:54:15.202Z,100.00
2022-10-08T18:57:18.122Z,100.00
2022-10-08T19:00:21.204Z,100.00
2022-10-08T19:03:26.222Z,100.00
2022-10-08T19:06:31.087Z,100.00
2022-10-08T19:09:34.162Z,100.00
2022-10-08T19:12:37.102Z,100.00
2022-10-08T19:15:40.668Z,100.00
2022-10-08T19:18:53.148Z,100.00
2022-10-08T19:21:56.824Z,100.00
2022-10-08T19:24:59.860Z,100.00
2022-10-08T19:28:03.700Z,100.00
2022-10-08T19:31:13.564Z,100.00
2022-10-08T19:34:20.021Z,100.00
2022-10-08T19:37:23.005Z,100.00
2022-10-08T19:40:26.123Z,100.00
2022-10-08T19:43:29.034Z,100.00
2022-10-08T19:46:32.070Z,100.00
2022-10-08T19:49:36.572Z,100.00
2022-10-08T19:52:39.612Z,100.00
2022-10-08T19:55:42.595Z,100.00
2022-10-08T19:58:48.710Z,100.00
2022-10-08T20:01:51.979Z,100.00
2022-10-08T20:04:56.321Z,100.00
2022-10-08T20:07:59.263Z,100.00
2022-10-08T20:11:03.504Z,100.00
2022-10-08T20:14:06.782Z,100.00
2022-10-08T20:17:09.705Z,100.00
2022-10-08T20:20:31.582Z,100.00
2022-10-08T20:23:36.639Z,100.00
2022-10-08T20:26:41.031Z,100.00
2022-10-08T20:29:44.420Z,100.00
2022-10-08T20:32:47.518Z,100.00
2022-10-08T20:35:52.100Z,100.00
2022-10-08T20:38:55.312Z,100.00
2022-10-08T20:41:59.487Z,100.00
2022-10-08T20:45:02.453Z,100.00
2022-10-08T20:48:05.464Z,100.00
2022-10-08T20:51:11.696Z,100.00
2022-10-08T20:54:17.898Z,100.00
2022-10-08T20:57:20.826Z,100.00
2022-10-08T21:00:23.689Z,100.00
2022-10-08T21:03:26.573Z,100.00
2022-10-08T21:06:32.552Z,100.00
2022-10-08T21:09:35.466Z,100.00
2022-10-08T21:12:38.373Z,100.00
2022-10-08T21:15:41.344Z,100.00
2022-10-08T21:18:44.555Z,100.00
2022-10-08T21:21:48.844Z,100.00
2022-10-08T21:24:51.753Z,100.00
2022-10-08T21:27:54.639Z,100.00
2022-10-08T21:31:01.770Z,100.00
2022-10-08T21:34:07.713Z,100.00
2022-10-08T21:37:13.970Z,100.00
2022-10-08T21:40:17.142Z,100.00
2022-10-08T21:43:19.983Z,100.00
2022-10-08T21:46:26.473Z,100.00
2022-10-08T21:49:29.509Z,100.00
2022-10-08T21:52:33.748Z,100.00
2022-10-08T21:55:37.117Z,100.00
2022-10-08T21:58:41.955Z,100.00
2022-10-08T22:01:46.512Z,100.00
2022-10-08T22:04:49.543Z,100.00
2022-10-08T22:07:53.829Z,100.00
2022-10-08T22:10:57.423Z,100.00
2022-10-08T22:14:00.446Z,100.00
2022-10-08T22:17:03.412Z,100.00
2022-10-08T22:20:07.195Z,100.00
2022-10-08T22:23:11.674Z,100.00
2022-10-08T22:26:16.694Z,100.00
2022-10-08T22:29:20.122Z,100.00
2022-10-08T22:32:23.055Z,100.00
2022-10-08T22:35:26.060Z,100.00
2022-10-08T22:38:31.711Z,100.00
2022-10-08T22:41:35.680Z,100.00
2022-10-08T22:44:38.613Z,100.00
2022-10-08T22:47:41.499Z,100.00
2022-10-08T22:50:44.391Z,100.00
2022-10-08T22:53:49.639Z,100.00
2022-10-08T22:56:52.550Z,100.00
2022-10-08T22:59:55.499Z,100.00
2022-10-08T23:02:58.584Z,100.00
2022-10-08T23:06:03.617Z,100.00
2022-10-08T23:09:12.465Z,100.00
2022-10-08T23:12:15.411Z,100.00
2022-10-08T23:15:18.284Z,100.00
2022-10-08T23:18:21.163Z,100.00
2022-10-08T23:21:24.864Z,100.00
2022-10-08T23:24:29.395Z,100.00
2022-10-08T23:27:32.335Z,100.00
2022-10-08T23:30:43.133Z,100.00
2022-10-08T23:33:48.382Z,100.00
2022-10-08T23:36:51.298Z,100.00
2022-10-08T23:39:57.900Z,100.00
2022-10-08T23:43:00.966Z,100.00
2022-10-08T23:46:04.255Z,100.00
2022-10-08T23:49:07.373Z,100.00
2022-10-08T23:52:10.433Z,100.00
2022-10-08T23:55:14.814Z,100.00
2022-10-08T23:58:18.864Z,100.00
